COOK73 RJOC-UITT
Flight info
| Callsign | COOK73 |
|---|---|
| Flight time | N/A |
| Altitude | 38000 |
| Route | XZE B332 KANSU/K0817F380 M825 VASRO/K0820S1160 R224 YNJ W39 UGABI B451 HLD A345 TELOK/K0833F380 A810 AGINO A91 KTN R809 ATBAT G363 UNGER DCT ERMIK ERMIK4L |
| Aircraft | C25C/M-SDE2E3FGHRWXY/LB1 |
Departure
| Time | 2026-04-12 00:04 |
|---|---|
| Airport | Izumo Enmusubi Airport (RJOC) |
Arrival
| Time | N/A |
|---|---|
| Airport | Ust-Kut Airport (UITT) |
| Time | Latitude | Longitude | Altitude | Speed | Heading |
|---|---|---|---|---|---|
| 2026-04-11 23:44 | 35.41394 | 132.88723 | 13 ft | 0 kts | 331° |
| 2026-04-11 23:56 | 35.41390 | 132.88726 | 13 ft | 4 kts | 330° |
| 2026-04-11 23:56 | 35.41384 | 132.88738 | 13 ft | 2 kts | 253° |
| 2026-04-11 23:57 | 35.41392 | 132.88747 | 13 ft | 0 kts | 218° |
| 2026-04-11 23:58 | 35.41387 | 132.88740 | 13 ft | 4 kts | 232° |
| 2026-04-11 23:59 | 35.41357 | 132.88680 | 12 ft | 10 kts | 240° |
| 2026-04-11 23:59 | 35.41334 | 132.88656 | 12 ft | 9 kts | 184° |
| 2026-04-11 23:59 | 35.41309 | 132.88666 | 12 ft | 0 kts | 150° |
| 2026-04-11 23:59 | 35.41276 | 132.88689 | 12 ft | 12 kts | 149° |
| 2026-04-12 00:00 | 35.41222 | 132.88708 | 11 ft | 4 kts | 21° |
| 2026-04-12 00:00 | 35.41222 | 132.88685 | 11 ft | 8 kts | 242° |
| 2026-04-12 00:00 | 35.41163 | 132.88568 | 12 ft | 23 kts | 238° |
| 2026-04-12 00:00 | 35.41068 | 132.88367 | 12 ft | 29 kts | 240° |
| 2026-04-12 00:01 | 35.40985 | 132.88190 | 12 ft | 19 kts | 236° |
| 2026-04-12 00:01 | 35.40910 | 132.88121 | 10 ft | 14 kts | 229° |
| 2026-04-12 00:01 | 35.40927 | 132.88089 | 10 ft | 4 kts | 27° |
| 2026-04-12 00:01 | 35.40937 | 132.88101 | 11 ft | 0 kts | 53° |
| 2026-04-12 00:03 | 35.40964 | 132.88147 | 11 ft | 30 kts | 56° |
| 2026-04-12 00:03 | 35.41234 | 132.88703 | 29 ft | 117 kts | 59° |
| 2026-04-12 00:03 | 35.41736 | 132.89554 | 560 ft | 147 kts | 54° |
| 2026-04-12 00:03 | 35.42816 | 132.90377 | 567 ft | 223 kts | 19° |
| 2026-04-12 00:04 | 35.44459 | 132.91046 | 624 ft | 264 kts | 24° |
| 2026-04-12 00:04 | 35.46141 | 132.91961 | 834 ft | 259 kts | 27° |
| 2026-04-12 00:04 | 35.47683 | 132.92878 | 1596 ft | 238 kts | 28° |
| 2026-04-12 00:04 | 35.49193 | 132.93756 | 1789 ft | 243 kts | 28° |
| 2026-04-12 00:05 | 35.50727 | 132.94644 | 2093 ft | 245 kts | 27° |
| 2026-04-12 00:05 | 35.52285 | 132.95531 | 2360 ft | 252 kts | 28° |
| 2026-04-12 00:05 | 35.53829 | 132.96384 | 3858 ft | 230 kts | 18° |
| 2026-04-12 00:05 | 35.55372 | 132.96504 | 5240 ft | 226 kts | 353° |
| 2026-04-12 00:06 | 35.56874 | 132.95909 | 6180 ft | 230 kts | 329° |
| 2026-04-12 00:06 | 35.58091 | 132.94644 | 7152 ft | 233 kts | 308° |
| 2026-04-12 00:06 | 35.58816 | 132.92878 | 8075 ft | 239 kts | 287° |
| 2026-04-12 00:06 | 35.58957 | 132.90821 | 9006 ft | 245 kts | 276° |
| 2026-04-12 00:07 | 35.59641 | 132.88977 | 9944 ft | 242 kts | 317° |
| 2026-04-12 00:07 | 35.61075 | 132.87876 | 10777 ft | 247 kts | 335° |
| 2026-04-12 00:07 | 35.62776 | 132.87495 | 11608 ft | 254 kts | 355° |
| 2026-04-12 00:07 | 35.64559 | 132.87471 | 12406 ft | 259 kts | 356° |
| 2026-04-12 00:08 | 35.66376 | 132.87439 | 13220 ft | 262 kts | 353° |
| 2026-04-12 00:08 | 35.68210 | 132.87282 | 14023 ft | 266 kts | 352° |
| 2026-04-12 00:08 | 35.70068 | 132.87104 | 14756 ft | 270 kts | 351° |
| 2026-04-12 00:08 | 35.71956 | 132.86945 | 15496 ft | 273 kts | 352° |
| 2026-04-12 00:09 | 35.73864 | 132.86792 | 16236 ft | 276 kts | 351° |
| 2026-04-12 00:09 | 35.75791 | 132.86639 | 16965 ft | 279 kts | 351° |
| 2026-04-12 00:09 | 35.77743 | 132.86476 | 17700 ft | 283 kts | 351° |
| 2026-04-12 00:09 | 35.79719 | 132.86313 | 18430 ft | 286 kts | 350° |
| 2026-04-12 00:10 | 35.81639 | 132.86157 | 19050 ft | 289 kts | 350° |
| 2026-04-12 00:10 | 35.83628 | 132.85992 | 19724 ft | 291 kts | 350° |
| 2026-04-12 00:10 | 35.85653 | 132.85828 | 20402 ft | 293 kts | 349° |
| 2026-04-12 00:10 | 35.87695 | 132.85658 | 21083 ft | 295 kts | 349° |
| 2026-04-12 00:11 | 35.89754 | 132.85488 | 21764 ft | 298 kts | 349° |
| 2026-04-12 00:11 | 35.91831 | 132.85319 | 22449 ft | 300 kts | 349° |
| 2026-04-12 00:11 | 35.93922 | 132.85144 | 23132 ft | 303 kts | 349° |
| 2026-04-12 00:11 | 35.96037 | 132.84971 | 23789 ft | 305 kts | 349° |
| 2026-04-12 00:12 | 35.98168 | 132.84795 | 24343 ft | 308 kts | 348° |
| 2026-04-12 00:12 | 36.00316 | 132.84616 | 24906 ft | 311 kts | 347° |
| 2026-04-12 00:12 | 36.02480 | 132.84440 | 25476 ft | 313 kts | 347° |
| 2026-04-12 00:12 | 36.04662 | 132.84257 | 26043 ft | 316 kts | 346° |
| 2026-04-12 00:13 | 36.06862 | 132.84076 | 26589 ft | 318 kts | 346° |
| 2026-04-12 00:13 | 36.09081 | 132.83893 | 27119 ft | 321 kts | 346° |
| 2026-04-12 00:13 | 36.11322 | 132.83705 | 27646 ft | 324 kts | 345° |
| 2026-04-12 00:13 | 36.13577 | 132.83521 | 28182 ft | 325 kts | 345° |
| 2026-04-12 00:14 | 36.15828 | 132.83338 | 28871 ft | 323 kts | 344° |
| 2026-04-12 00:14 | 36.18063 | 132.83152 | 29535 ft | 321 kts | 343° |
| 2026-04-12 00:14 | 36.20289 | 132.82968 | 30195 ft | 319 kts | 342° |
| 2026-04-12 00:14 | 36.22506 | 132.82782 | 30731 ft | 318 kts | 342° |
| 2026-04-12 00:15 | 36.24714 | 132.82598 | 31238 ft | 318 kts | 342° |
| 2026-04-12 00:15 | 36.26920 | 132.82416 | 31745 ft | 317 kts | 342° |
| 2026-04-12 00:15 | 36.29093 | 132.82234 | 32245 ft | 317 kts | 342° |
| 2026-04-12 00:15 | 36.31318 | 132.82049 | 32752 ft | 316 kts | 342° |
| 2026-04-12 00:16 | 36.33513 | 132.81867 | 33248 ft | 316 kts | 341° |
| 2026-04-12 00:16 | 36.35679 | 132.81686 | 33730 ft | 316 kts | 341° |
| 2026-04-12 00:16 | 36.37870 | 132.81504 | 34211 ft | 315 kts | 341° |
| 2026-04-12 00:16 | 36.40055 | 132.81323 | 34640 ft | 313 kts | 341° |
| 2026-04-12 00:17 | 36.42227 | 132.81142 | 35080 ft | 312 kts | 340° |
| 2026-04-12 00:17 | 36.44384 | 132.80963 | 35524 ft | 309 kts | 339° |
| 2026-04-12 00:17 | 36.46527 | 132.80784 | 35956 ft | 308 kts | 339° |
| 2026-04-12 00:17 | 36.48655 | 132.80605 | 36386 ft | 306 kts | 339° |
| 2026-04-12 00:18 | 36.50770 | 132.80429 | 36810 ft | 304 kts | 338° |
| 2026-04-12 00:18 | 36.52876 | 132.80252 | 37218 ft | 302 kts | 338° |
| 2026-04-12 00:18 | 36.54967 | 132.80076 | 37629 ft | 301 kts | 337° |
| 2026-04-12 00:18 | 36.57051 | 132.79902 | 37991 ft | 300 kts | 337° |
| 2026-04-12 00:19 | 36.59161 | 132.79715 | 38104 ft | 308 kts | 337° |
| 2026-04-12 00:19 | 36.63548 | 132.79338 | 38140 ft | 328 kts | 339° |
| 2026-04-12 00:20 | 36.68226 | 132.78954 | 38140 ft | 344 kts | 339° |
| 2026-04-12 00:20 | 36.73067 | 132.78551 | 38144 ft | 353 kts | 340° |
| 2026-04-12 00:21 | 36.78019 | 132.78134 | 38146 ft | 360 kts | 340° |
| 2026-04-12 00:21 | 36.82215 | 132.77781 | 38149 ft | 366 kts | 340° |
| 2026-04-12 00:22 | 36.87336 | 132.77349 | 38141 ft | 371 kts | 340° |
| 2026-04-12 00:22 | 36.92523 | 132.76912 | 38144 ft | 376 kts | 340° |
| 2026-04-12 00:23 | 36.97772 | 132.76469 | 38146 ft | 380 kts | 341° |
| 2026-04-12 00:23 | 37.03064 | 132.76020 | 38145 ft | 383 kts | 341° |
| 2026-04-12 00:24 | 37.08398 | 132.75567 | 38142 ft | 385 kts | 341° |
| 2026-04-12 00:24 | 37.13738 | 132.75114 | 38145 ft | 388 kts | 341° |
| 2026-04-12 00:25 | 37.19137 | 132.74656 | 38147 ft | 389 kts | 341° |
| 2026-04-12 00:25 | 37.24556 | 132.74194 | 38149 ft | 391 kts | 341° |
| 2026-04-12 00:26 | 37.29990 | 132.73729 | 38145 ft | 392 kts | 341° |
| 2026-04-12 00:26 | 37.35313 | 132.72824 | 38149 ft | 385 kts | 337° |
| 2026-04-12 00:27 | 37.40613 | 132.71803 | 38151 ft | 385 kts | 337° |
| 2026-04-12 00:27 | 37.45919 | 132.70762 | 38146 ft | 386 kts | 337° |
| 2026-04-12 00:28 | 37.51233 | 132.69724 | 38144 ft | 387 kts | 337° |
| 2026-04-12 00:28 | 37.56562 | 132.68682 | 38139 ft | 388 kts | 337° |
| 2026-04-12 00:29 | 37.61893 | 132.67636 | 38141 ft | 388 kts | 337° |
| 2026-04-12 00:29 | 37.67200 | 132.66592 | 38142 ft | 388 kts | 337° |
| 2026-04-12 00:30 | 37.72542 | 132.65539 | 38146 ft | 389 kts | 338° |
| 2026-04-12 00:30 | 37.77888 | 132.64486 | 38141 ft | 389 kts | 338° |
| 2026-04-12 00:31 | 37.83240 | 132.63428 | 38141 ft | 389 kts | 338° |
| 2026-04-12 00:31 | 37.88593 | 132.62367 | 38142 ft | 389 kts | 338° |
| 2026-04-12 00:32 | 37.93943 | 132.61307 | 38144 ft | 389 kts | 338° |
| 2026-04-12 00:32 | 37.99297 | 132.60246 | 38139 ft | 389 kts | 338° |
| 2026-04-12 00:33 | 38.04651 | 132.59192 | 38146 ft | 389 kts | 338° |
| 2026-04-12 00:33 | 38.10005 | 132.58131 | 38140 ft | 389 kts | 338° |
| 2026-04-12 00:34 | 38.15329 | 132.57077 | 38141 ft | 390 kts | 338° |
| 2026-04-12 00:34 | 38.20685 | 132.56016 | 38139 ft | 390 kts | 338° |
| 2026-04-12 00:35 | 38.26044 | 132.54952 | 38139 ft | 390 kts | 338° |
| 2026-04-12 00:35 | 38.31402 | 132.53885 | 38136 ft | 390 kts | 338° |
| 2026-04-12 00:36 | 38.36769 | 132.52816 | 38137 ft | 390 kts | 338° |
| 2026-04-12 00:36 | 38.42127 | 132.51747 | 38137 ft | 390 kts | 339° |
| 2026-04-12 00:37 | 38.47489 | 132.50677 | 38137 ft | 390 kts | 339° |
| 2026-04-12 00:37 | 38.52857 | 132.49602 | 38134 ft | 390 kts | 339° |
| 2026-04-12 00:38 | 38.58220 | 132.48526 | 38135 ft | 390 kts | 339° |
| 2026-04-12 00:38 | 38.63391 | 132.46911 | 38128 ft | 376 kts | 329° |
| 2026-04-12 00:39 | 38.68125 | 132.44298 | 38129 ft | 365 kts | 322° |
| 2026-04-12 00:39 | 38.72627 | 132.41267 | 38130 ft | 366 kts | 322° |
| 2026-04-12 00:40 | 38.77113 | 132.38264 | 38126 ft | 366 kts | 322° |
| 2026-04-12 00:40 | 38.81623 | 132.35227 | 38129 ft | 366 kts | 322° |
| 2026-04-12 00:41 | 38.86143 | 132.32183 | 38125 ft | 367 kts | 322° |
| 2026-04-12 00:41 | 38.90659 | 132.29135 | 38127 ft | 367 kts | 322° |
| 2026-04-12 00:42 | 38.95180 | 132.26082 | 38122 ft | 367 kts | 322° |
| 2026-04-12 00:42 | 38.99702 | 132.23024 | 38123 ft | 368 kts | 322° |
| 2026-04-12 00:43 | 39.06464 | 132.18440 | 38121 ft | 368 kts | 322° |
| 2026-04-12 00:43 | 39.10992 | 132.15367 | 38119 ft | 368 kts | 322° |
| 2026-04-12 00:44 | 39.15524 | 132.12283 | 38121 ft | 368 kts | 322° |
| 2026-04-12 00:44 | 39.20060 | 132.09194 | 38119 ft | 369 kts | 322° |
| 2026-04-12 00:45 | 39.24597 | 132.06101 | 38115 ft | 369 kts | 323° |
| 2026-04-12 00:45 | 39.29145 | 132.02996 | 38114 ft | 369 kts | 322° |
| 2026-04-12 00:46 | 39.33690 | 131.99885 | 38112 ft | 370 kts | 322° |
| 2026-04-12 00:46 | 39.38244 | 131.96766 | 38113 ft | 370 kts | 323° |
| 2026-04-12 00:47 | 39.42797 | 131.93644 | 38110 ft | 370 kts | 323° |
| 2026-04-12 00:47 | 39.47356 | 131.90511 | 38109 ft | 371 kts | 323° |
| 2026-04-12 00:48 | 39.51884 | 131.87394 | 38110 ft | 371 kts | 323° |
| 2026-04-12 00:48 | 39.56451 | 131.84248 | 38103 ft | 372 kts | 323° |
| 2026-04-12 00:49 | 39.61016 | 131.81098 | 38101 ft | 372 kts | 323° |
| 2026-04-12 00:49 | 39.65583 | 131.77941 | 38102 ft | 372 kts | 323° |
| 2026-04-12 00:50 | 39.70149 | 131.74779 | 38102 ft | 372 kts | 323° |
| 2026-04-12 00:50 | 39.74722 | 131.71609 | 38099 ft | 372 kts | 323° |
| 2026-04-12 00:51 | 39.79293 | 131.68437 | 38101 ft | 373 kts | 323° |
| 2026-04-12 00:51 | 39.83869 | 131.65254 | 38098 ft | 373 kts | 323° |
| 2026-04-12 00:52 | 39.88444 | 131.62067 | 38094 ft | 373 kts | 323° |
| 2026-04-12 00:52 | 39.93025 | 131.58872 | 38092 ft | 374 kts | 323° |
| 2026-04-12 00:53 | 39.97578 | 131.55692 | 38085 ft | 374 kts | 323° |
| 2026-04-12 00:53 | 40.02166 | 131.52482 | 38092 ft | 374 kts | 323° |
| 2026-04-12 00:54 | 40.06752 | 131.49268 | 38092 ft | 374 kts | 323° |
| 2026-04-12 00:54 | 40.11343 | 131.46046 | 38089 ft | 375 kts | 323° |
| 2026-04-12 00:55 | 40.15936 | 131.42819 | 38087 ft | 375 kts | 323° |
| 2026-04-12 00:55 | 40.20534 | 131.39581 | 38086 ft | 375 kts | 323° |
| 2026-04-12 00:56 | 40.25130 | 131.36340 | 38085 ft | 375 kts | 323° |
| 2026-04-12 00:56 | 40.29697 | 131.33117 | 38081 ft | 375 kts | 323° |
| 2026-04-12 00:57 | 40.34291 | 131.29868 | 38081 ft | 375 kts | 323° |
| 2026-04-12 00:57 | 40.38891 | 131.26609 | 38080 ft | 376 kts | 323° |
| 2026-04-12 00:58 | 40.43489 | 131.23346 | 38081 ft | 376 kts | 323° |
| 2026-04-12 00:58 | 40.48090 | 131.20078 | 38076 ft | 376 kts | 323° |
| 2026-04-12 00:59 | 40.52690 | 131.16805 | 38076 ft | 376 kts | 323° |
| 2026-04-12 00:59 | 40.57290 | 131.13525 | 38078 ft | 376 kts | 323° |
| 2026-04-12 01:00 | 40.61886 | 131.10243 | 38072 ft | 376 kts | 323° |
| 2026-04-12 01:00 | 40.66489 | 131.06953 | 38069 ft | 376 kts | 323° |
| 2026-04-12 01:01 | 40.71085 | 131.03662 | 38071 ft | 376 kts | 323° |
| 2026-04-12 01:01 | 40.75681 | 131.00365 | 38065 ft | 376 kts | 323° |
| 2026-04-12 01:02 | 40.80273 | 130.97065 | 38066 ft | 376 kts | 323° |
| 2026-04-12 01:02 | 40.84868 | 130.93759 | 38070 ft | 376 kts | 323° |
| 2026-04-12 01:03 | 40.89428 | 130.90473 | 38065 ft | 376 kts | 323° |
| 2026-04-12 01:03 | 40.94014 | 130.87162 | 38063 ft | 376 kts | 323° |
| 2026-04-12 01:04 | 40.98602 | 130.83844 | 38060 ft | 375 kts | 323° |
| 2026-04-12 01:04 | 41.03186 | 130.80525 | 38056 ft | 376 kts | 323° |
| 2026-04-12 01:05 | 41.07769 | 130.77202 | 38060 ft | 375 kts | 323° |
| 2026-04-12 01:05 | 41.12354 | 130.73870 | 38049 ft | 375 kts | 323° |
| 2026-04-12 01:06 | 41.16928 | 130.70540 | 38053 ft | 375 kts | 323° |
| 2026-04-12 01:06 | 41.21504 | 130.67206 | 38039 ft | 375 kts | 323° |
| 2026-04-12 01:07 | 41.26081 | 130.63865 | 38041 ft | 375 kts | 323° |
| 2026-04-12 01:08 | 41.32941 | 130.58847 | 38038 ft | 375 kts | 323° |
| 2026-04-12 01:08 | 41.37510 | 130.55498 | 38040 ft | 375 kts | 323° |
| 2026-04-12 01:09 | 41.42049 | 130.52165 | 38037 ft | 375 kts | 323° |
| 2026-04-12 01:09 | 41.46618 | 130.48805 | 38035 ft | 375 kts | 323° |
| 2026-04-12 01:10 | 41.51178 | 130.45448 | 38032 ft | 375 kts | 323° |
| 2026-04-12 01:10 | 41.54977 | 130.42645 | 38036 ft | 375 kts | 323° |
| 2026-04-12 01:11 | 41.59542 | 130.39272 | 38036 ft | 375 kts | 323° |
| 2026-04-12 01:11 | 41.64849 | 130.35345 | 38036 ft | 375 kts | 323° |
| 2026-04-12 01:12 | 41.69417 | 130.31959 | 38031 ft | 375 kts | 323° |
| 2026-04-12 01:12 | 41.73239 | 130.29122 | 38031 ft | 375 kts | 323° |
| 2026-04-12 01:13 | 41.77810 | 130.25721 | 38031 ft | 375 kts | 323° |
| 2026-04-12 01:13 | 41.82347 | 130.22341 | 38029 ft | 376 kts | 323° |
| 2026-04-12 01:14 | 41.86917 | 130.18931 | 38027 ft | 376 kts | 323° |
| 2026-04-12 01:14 | 41.91489 | 130.15514 | 38024 ft | 376 kts | 323° |
| 2026-04-12 01:15 | 41.95974 | 130.12155 | 38019 ft | 377 kts | 323° |
| 2026-04-12 01:15 | 42.00554 | 130.08721 | 38024 ft | 377 kts | 323° |
| 2026-04-12 01:16 | 42.05135 | 130.05281 | 38014 ft | 377 kts | 323° |
| 2026-04-12 01:16 | 42.09719 | 130.01830 | 38012 ft | 378 kts | 323° |
| 2026-04-12 01:17 | 42.14310 | 129.98370 | 38006 ft | 378 kts | 323° |
| 2026-04-12 01:17 | 42.18909 | 129.94899 | 38006 ft | 378 kts | 323° |
| 2026-04-12 01:18 | 42.23504 | 129.91426 | 37999 ft | 378 kts | 323° |
| 2026-04-12 01:18 | 42.28100 | 129.87939 | 38007 ft | 379 kts | 323° |
| 2026-04-12 01:19 | 42.32684 | 129.84462 | 37997 ft | 381 kts | 323° |
| 2026-04-12 01:19 | 42.37307 | 129.80952 | 37993 ft | 381 kts | 323° |
| 2026-04-12 01:20 | 42.41933 | 129.77428 | 37996 ft | 382 kts | 323° |
| 2026-04-12 01:20 | 42.46570 | 129.73903 | 37985 ft | 383 kts | 324° |
| 2026-04-12 01:21 | 42.51350 | 129.70652 | 37986 ft | 384 kts | 325° |
| 2026-04-12 01:21 | 42.56117 | 129.67367 | 37988 ft | 384 kts | 325° |
| 2026-04-12 01:22 | 42.60899 | 129.64098 | 37989 ft | 384 kts | 325° |
| 2026-04-12 01:22 | 42.65680 | 129.60807 | 37986 ft | 385 kts | 325° |
| 2026-04-12 01:23 | 42.70434 | 129.57539 | 37992 ft | 385 kts | 325° |
| 2026-04-12 01:23 | 42.75216 | 129.54241 | 37987 ft | 386 kts | 325° |
| 2026-04-12 01:24 | 42.80004 | 129.50935 | 37989 ft | 386 kts | 325° |
| 2026-04-12 01:24 | 42.84788 | 129.47625 | 37988 ft | 385 kts | 325° |
| 2026-04-12 01:25 | 42.89548 | 129.44264 | 37985 ft | 383 kts | 323° |
| 2026-04-12 01:25 | 42.94228 | 129.40741 | 37982 ft | 384 kts | 323° |
| 2026-04-12 01:26 | 42.98909 | 129.37231 | 37979 ft | 384 kts | 323° |
| 2026-04-12 01:26 | 43.03590 | 129.33704 | 37981 ft | 384 kts | 323° |
| 2026-04-12 01:27 | 43.08280 | 129.30170 | 37979 ft | 385 kts | 323° |
| 2026-04-12 01:27 | 43.12939 | 129.26650 | 37984 ft | 385 kts | 323° |
| 2026-04-12 01:28 | 43.17634 | 129.23096 | 37977 ft | 385 kts | 323° |
| 2026-04-12 01:28 | 43.22330 | 129.19536 | 37974 ft | 386 kts | 323° |
| 2026-04-12 01:29 | 43.27034 | 129.15963 | 37971 ft | 386 kts | 323° |
| 2026-04-12 01:29 | 43.31739 | 129.12386 | 37964 ft | 386 kts | 323° |
| 2026-04-12 01:30 | 43.36435 | 129.08804 | 37961 ft | 386 kts | 323° |
| 2026-04-12 01:30 | 43.41148 | 129.05326 | 37958 ft | 388 kts | 326° |
| 2026-04-12 01:31 | 43.45963 | 129.01973 | 37957 ft | 388 kts | 326° |
| 2026-04-12 01:31 | 43.50775 | 128.98610 | 37948 ft | 388 kts | 326° |
| 2026-04-12 01:32 | 43.55586 | 128.95249 | 37950 ft | 388 kts | 326° |
| 2026-04-12 01:32 | 43.60395 | 128.91878 | 37951 ft | 388 kts | 326° |
| 2026-04-12 01:33 | 43.65212 | 128.88501 | 37953 ft | 388 kts | 326° |
| 2026-04-12 01:33 | 43.70023 | 128.85117 | 37953 ft | 388 kts | 326° |
| 2026-04-12 01:34 | 43.74834 | 128.81727 | 37951 ft | 389 kts | 326° |
| 2026-04-12 01:34 | 43.79660 | 128.78340 | 37953 ft | 389 kts | 326° |
| 2026-04-12 01:35 | 43.84490 | 128.74945 | 37954 ft | 390 kts | 326° |
| 2026-04-12 01:35 | 43.89327 | 128.71535 | 37951 ft | 390 kts | 326° |
| 2026-04-12 01:36 | 43.94133 | 128.68144 | 37951 ft | 390 kts | 326° |
| 2026-04-12 01:36 | 43.98978 | 128.64715 | 37954 ft | 391 kts | 326° |
| 2026-04-12 01:37 | 44.03824 | 128.61284 | 37955 ft | 391 kts | 326° |
| 2026-04-12 01:37 | 44.08679 | 128.57836 | 37956 ft | 391 kts | 326° |
| 2026-04-12 01:38 | 44.13175 | 128.53731 | 37956 ft | 383 kts | 315° |
| 2026-04-12 01:38 | 44.16964 | 128.48606 | 37949 ft | 378 kts | 308° |
| 2026-04-12 01:39 | 44.20566 | 128.43258 | 37947 ft | 379 kts | 308° |
| 2026-04-12 01:39 | 44.24138 | 128.37925 | 37947 ft | 379 kts | 308° |
| 2026-04-12 01:40 | 44.27735 | 128.32549 | 37942 ft | 379 kts | 308° |
| 2026-04-12 01:40 | 44.31334 | 128.27160 | 37925 ft | 379 kts | 308° |
| 2026-04-12 01:41 | 44.34934 | 128.21760 | 37922 ft | 380 kts | 308° |
| 2026-04-12 01:41 | 44.38529 | 128.16355 | 37919 ft | 380 kts | 308° |
| 2026-04-12 01:42 | 44.42127 | 128.10935 | 37909 ft | 380 kts | 308° |
| 2026-04-12 01:42 | 44.45698 | 128.05546 | 37906 ft | 380 kts | 308° |
| 2026-04-12 01:43 | 44.49286 | 128.00121 | 37895 ft | 379 kts | 308° |
| 2026-04-12 01:43 | 44.52869 | 127.94693 | 37893 ft | 379 kts | 308° |
| 2026-04-12 01:44 | 44.56448 | 127.89260 | 37887 ft | 379 kts | 308° |
| 2026-04-12 01:44 | 44.60017 | 127.83832 | 37883 ft | 378 kts | 308° |
| 2026-04-12 01:45 | 44.63578 | 127.78404 | 37877 ft | 377 kts | 308° |
| 2026-04-12 01:45 | 44.67133 | 127.72976 | 37877 ft | 377 kts | 308° |
| 2026-04-12 01:46 | 44.70679 | 127.67551 | 37873 ft | 376 kts | 308° |
| 2026-04-12 01:46 | 44.74215 | 127.62134 | 37868 ft | 376 kts | 308° |
| 2026-04-12 01:47 | 44.77744 | 127.56711 | 37869 ft | 375 kts | 308° |
| 2026-04-12 01:47 | 44.81248 | 127.51321 | 37867 ft | 375 kts | 308° |
| 2026-04-12 01:48 | 44.84765 | 127.45897 | 37865 ft | 375 kts | 308° |
| 2026-04-12 01:48 | 44.88274 | 127.40475 | 37864 ft | 374 kts | 308° |
| 2026-04-12 01:49 | 44.91783 | 127.35046 | 37865 ft | 374 kts | 308° |
| 2026-04-12 01:49 | 44.95283 | 127.29617 | 37861 ft | 374 kts | 308° |
| 2026-04-12 01:50 | 44.98782 | 127.24179 | 37862 ft | 373 kts | 307° |
| 2026-04-12 01:50 | 45.02269 | 127.18749 | 37859 ft | 373 kts | 307° |